Time;durP1;ratioP1;P1;durP2;ratioP2;P2;SDS_P1;SDS_P2;PMS_P1;PMS_P2;Temp;Humidity;BMP_temperature;BMP_pressure;BME280_temperature;BME280_humidity;BME280_pressure;Samples;Min_cycle;Max_cycle;Signal;HPM_P1;HPM_P2
2022/09/29 00:00:10;;;;;;;2.97;0.88;;;;;;;;;;5097012;28;20067;-75
2022/09/29 00:02:37;;;;;;;3.42;1.00;;;;;;;;;;5097676;28;20114;-74
2022/09/29 00:05:03;;;;;;;3.67;1.23;;;;;;;;;;5097425;28;20048;-75
2022/09/29 00:07:31;;;;;;;5.63;1.02;;;;;;;;;;5097574;28;20040;-75
2022/09/29 00:09:57;;;;;;;6.70;1.35;;;;;;;;;;5097037;28;20040;-75
2022/09/29 00:12:23;;;;;;;7.28;1.25;;;;;;;;;;5097262;28;20585;-75
2022/09/29 00:14:49;;;;;;;2.58;1.00;;;;;;;;;;5096814;28;20071;-75
2022/09/29 00:17:15;;;;;;;5.47;1.25;;;;;;;;;;5096837;28;20521;-75
2022/09/29 00:19:41;;;;;;;4.35;0.90;;;;;;;;;;5096761;28;20496;-75
2022/09/29 00:22:08;;;;;;;2.03;0.82;;;;;;;;;;5097341;28;20047;-75
2022/09/29 00:24:34;;;;;;;6.63;1.35;;;;;;;;;;5097021;28;20036;-75
2022/09/29 00:27:01;;;;;;;5.63;0.98;;;;;;;;;;5097267;28;20149;-75
2022/09/29 00:29:27;;;;;;;1.17;0.70;;;;;;;;;;5096731;28;20039;-75
2022/09/29 00:31:53;;;;;;;2.58;1.73;;;;;;;;;;5096873;28;20043;-75
2022/09/29 00:34:19;;;;;;;6.15;1.02;;;;;;;;;;5096657;28;20490;-75
2022/09/29 00:36:46;;;;;;;4.43;1.02;;;;;;;;;;5096757;28;20130;-75
2022/09/29 00:39:12;;;;;;;2.92;0.85;;;;;;;;;;5096734;28;20047;-75
2022/09/29 00:41:39;;;;;;;5.35;0.80;;;;;;;;;;5096655;28;20113;-75
2022/09/29 00:44:07;;;;;;;3.35;1.00;;;;;;;;;;5096720;28;20055;-75
2022/09/29 00:46:36;;;;;;;3.47;0.93;;;;;;;;;;5096496;28;20052;-75
2022/09/29 00:49:06;;;;;;;2.88;0.80;;;;;;;;;;5096219;28;20048;-75
2022/09/29 00:51:34;;;;;;;4.20;0.85;;;;;;;;;;5096836;28;20131;-75
2022/09/29 00:54:00;;;;;;;1.60;0.63;;;;;;;;;;5096635;28;20051;-75
2022/09/29 00:56:27;;;;;;;5.10;0.77;;;;;;;;;;5096404;28;20047;-75
2022/09/29 00:58:58;;;;;;;4.28;1.17;;;;;;;;;;5096385;28;20047;-75
2022/09/29 01:01:26;;;;;;;2.88;0.70;;;;;;;;;;5096081;28;20097;-75
2022/09/29 01:03:55;;;;;;;2.83;0.63;;;;;;;;;;5096251;28;20051;-75
2022/09/29 01:06:25;;;;;;;1.85;0.60;;;;;;;;;;5095827;28;20036;-75
2022/09/29 01:08:58;;;;;;;3.33;0.90;;;;;;;;;;5096475;28;20122;-74
2022/09/29 01:11:24;;;;;;;3.40;0.82;;;;;;;;;;5095598;28;20047;-75
2022/09/29 01:13:50;;;;;;;4.10;0.75;;;;;;;;;;5095454;28;20036;-75
2022/09/29 01:16:17;;;;;;;2.15;0.63;;;;;;;;;;5096263;28;20127;-75
2022/09/29 01:18:44;;;;;;;2.58;0.80;;;;;;;;;;5095577;28;20036;-75
2022/09/29 01:21:14;;;;;;;4.15;0.88;;;;;;;;;;5095628;28;20483;-74
2022/09/29 01:23:40;;;;;;;3.13;0.93;;;;;;;;;;5095507;28;20040;-74
2022/09/29 01:26:32;;;;;;;3.70;1.10;;;;;;;;;;5095287;28;20074;-75
2022/09/29 01:29:08;;;;;;;2.53;0.57;;;;;;;;;;5071484;28;20044;-74
2022/09/29 01:31:41;;;;;;;2.08;0.57;;;;;;;;;;5096101;28;20063;-74
2022/09/29 01:34:19;;;;;;;2.05;0.50;;;;;;;;;;5095901;28;20051;-74
2022/09/29 01:36:58;;;;;;;0.93;0.52;;;;;;;;;;5095810;28;20035;-75
2022/09/29 01:39:31;;;;;;;1.13;0.90;;;;;;;;;;5095759;28;20047;-74
2022/09/29 01:42:00;;;;;;;1.42;0.50;;;;;;;;;;5095628;28;20115;-75
2022/09/29 01:44:31;;;;;;;1.27;0.43;;;;;;;;;;5095277;28;20547;-75
2022/09/29 01:47:17;;;;;;;3.40;0.60;;;;;;;;;;5095469;28;20048;-75
2022/09/29 01:49:45;;;;;;;3.13;0.52;;;;;;;;;;5095369;28;20055;-75
2022/09/29 01:52:16;;;;;;;2.33;0.50;;;;;;;;;;5096032;28;20474;-75
2022/09/29 01:54:48;;;;;;;2.85;0.50;;;;;;;;;;5095071;28;20059;-74
2022/09/29 01:57:17;;;;;;;2.05;0.50;;;;;;;;;;5095534;28;20131;-74
2022/09/29 01:59:46;;;;;;;1.70;0.65;;;;;;;;;;5094893;28;20028;-74
2022/09/29 02:02:16;;;;;;;4.03;0.50;;;;;;;;;;5095575;28;20059;-74
2022/09/29 02:04:46;;;;;;;4.63;0.77;;;;;;;;;;5094841;28;20063;-74
2022/09/29 02:07:45;;;;;;;3.63;0.60;;;;;;;;;;5095440;28;20539;-75
2022/09/29 02:10:21;;;;;;;0.88;0.50;;;;;;;;;;5061394;28;20044;-75
2022/09/29 02:12:49;;;;;;;0.93;0.40;;;;;;;;;;5095189;28;20043;-74
2022/09/29 02:15:19;;;;;;;2.78;0.57;;;;;;;;;;5095087;28;20031;-74
2022/09/29 02:17:48;;;;;;;1.83;0.75;;;;;;;;;;5095294;28;20048;-74
2022/09/29 02:20:14;;;;;;;2.60;0.50;;;;;;;;;;5095242;28;20032;-74
2022/09/29 02:22:41;;;;;;;1.33;0.90;;;;;;;;;;5095319;28;20114;-74
2022/09/29 02:25:08;;;;;;;1.48;0.68;;;;;;;;;;5094962;28;20036;-74
2022/09/29 02:27:35;;;;;;;3.38;0.80;;;;;;;;;;5093010;28;20398;-74
2022/09/29 02:30:02;;;;;;;3.78;0.75;;;;;;;;;;5094887;28;20097;-74
2022/09/29 02:32:29;;;;;;;2.58;0.80;;;;;;;;;;5094667;28;20533;-74
2022/09/29 02:34:56;;;;;;;4.30;0.60;;;;;;;;;;5094527;28;20124;-75
2022/09/29 02:37:42;;;;;;;4.60;0.88;;;;;;;;;;5094814;28;20131;-75
2022/09/29 02:40:27;;;;;;;2.40;0.70;;;;;;;;;;5095333;28;20088;-75
2022/09/29 02:43:06;;;;;;;2.58;0.47;;;;;;;;;;5094871;28;20042;-74
2022/09/29 02:45:51;;;;;;;1.92;0.47;;;;;;;;;;5095093;28;20051;-74
2022/09/29 02:48:27;;;;;;;4.32;0.80;;;;;;;;;;5094619;28;20058;-74
2022/09/29 02:50:59;;;;;;;2.75;0.50;;;;;;;;;;5095039;28;20048;-75
2022/09/29 02:53:26;;;;;;;2.83;0.70;;;;;;;;;;5094898;28;20040;-75
2022/09/29 02:56:15;;;;;;;1.20;0.50;;;;;;;;;;5094268;28;20039;-75
2022/09/29 02:58:50;;;;;;;3.22;0.60;;;;;;;;;;5086286;28;20115;-75
2022/09/29 03:01:16;;;;;;;2.33;0.65;;;;;;;;;;5094860;28;20130;-75
2022/09/29 03:03:42;;;;;;;1.60;0.60;;;;;;;;;;5094567;28;20048;-75
2022/09/29 03:06:10;;;;;;;4.97;0.60;;;;;;;;;;5094195;28;20131;-75
2022/09/29 03:08:36;;;;;;;2.92;0.82;;;;;;;;;;5094243;28;20044;-75
2022/09/29 03:11:03;;;;;;;4.93;0.70;;;;;;;;;;5094235;28;20048;-75
2022/09/29 03:13:29;;;;;;;2.45;0.73;;;;;;;;;;5094422;28;20513;-74
2022/09/29 03:15:55;;;;;;;3.53;0.70;;;;;;;;;;5094463;28;20093;-75
2022/09/29 03:18:22;;;;;;;2.53;0.60;;;;;;;;;;5094141;28;20040;-74
2022/09/29 03:20:48;;;;;;;3.92;0.90;;;;;;;;;;5095024;28;20040;-75
2022/09/29 03:23:15;;;;;;;4.93;0.65;;;;;;;;;;5093819;28;20363;-75
2022/09/29 03:25:41;;;;;;;3.38;0.60;;;;;;;;;;5094383;28;20040;-74
2022/09/29 03:28:07;;;;;;;4.85;1.00;;;;;;;;;;5093577;28;20040;-75
2022/09/29 03:30:34;;;;;;;5.03;0.70;;;;;;;;;;5094334;28;20040;-75
2022/09/29 03:33:00;;;;;;;4.15;0.60;;;;;;;;;;5094459;28;20111;-75
2022/09/29 03:35:26;;;;;;;2.42;0.68;;;;;;;;;;5096984;28;20036;-74
2022/09/29 03:37:56;;;;;;;4.10;0.90;;;;;;;;;;5097362;28;20510;-75
2022/09/29 03:40:22;;;;;;;4.18;0.70;;;;;;;;;;5097694;28;20043;-74
2022/09/29 03:42:48;;;;;;;3.20;0.73;;;;;;;;;;5097351;28;20040;-75
2022/09/29 03:45:14;;;;;;;5.63;1.15;;;;;;;;;;5097541;28;20036;-75
2022/09/29 03:47:41;;;;;;;3.95;0.68;;;;;;;;;;5097389;28;20043;-74
2022/09/29 03:50:07;;;;;;;7.20;0.80;;;;;;;;;;5097171;28;20039;-75
2022/09/29 03:52:33;;;;;;;2.70;0.70;;;;;;;;;;5097670;28;20052;-74
2022/09/29 03:54:59;;;;;;;2.13;0.60;;;;;;;;;;5097018;28;20040;-75
2022/09/29 03:57:25;;;;;;;2.97;0.75;;;;;;;;;;5096839;28;20040;-75
2022/09/29 03:59:52;;;;;;;2.08;0.60;;;;;;;;;;5096901;28;20047;-74
2022/09/29 04:02:19;;;;;;;1.50;0.60;;;;;;;;;;5096737;28;20490;-74
2022/09/29 04:04:45;;;;;;;0.68;0.50;;;;;;;;;;5114988;28;20036;-74
2022/09/29 04:07:12;;;;;;;2.58;0.60;;;;;;;;;;5117112;28;20371;-75
2022/09/29 04:09:38;;;;;;;2.58;0.80;;;;;;;;;;5117368;28;20563;-75
2022/09/29 04:12:04;;;;;;;2.42;0.50;;;;;;;;;;5117430;28;20047;-75
2022/09/29 04:14:30;;;;;;;3.33;0.82;;;;;;;;;;5116922;28;20525;-75
2022/09/29 04:16:56;;;;;;;2.15;0.50;;;;;;;;;;5117449;28;20132;-75
2022/09/29 04:19:23;;;;;;;4.15;0.85;;;;;;;;;;5116918;28;20035;-75
2022/09/29 04:21:49;;;;;;;2.65;0.82;;;;;;;;;;5117123;28;20039;-75
2022/09/29 04:24:15;;;;;;;2.80;0.95;;;;;;;;;;5117296;28;20035;-75
2022/09/29 04:26:41;;;;;;;2.60;0.50;;;;;;;;;;5116821;28;20039;-75
2022/09/29 04:29:07;;;;;;;4.20;0.65;;;;;;;;;;5116913;28;20046;-75
2022/09/29 04:31:34;;;;;;;1.90;0.40;;;;;;;;;;5116641;28;20151;-76
2022/09/29 04:34:00;;;;;;;1.35;0.50;;;;;;;;;;5116792;28;20517;-74
2022/09/29 04:36:26;;;;;;;4.00;0.40;;;;;;;;;;5111982;28;20058;-73
2022/09/29 04:38:53;;;;;;;2.05;0.40;;;;;;;;;;5115814;28;20040;-73
2022/09/29 04:41:19;;;;;;;0.45;0.30;;;;;;;;;;5114921;27;20062;-73
2022/09/29 04:43:45;;;;;;;1.08;0.43;;;;;;;;;;5116811;28;20036;-73
2022/09/29 04:46:11;;;;;;;1.67;0.38;;;;;;;;;;5116014;28;20035;-73
2022/09/29 04:48:37;;;;;;;3.90;0.40;;;;;;;;;;5097117;28;20040;-72
2022/09/29 04:51:04;;;;;;;1.10;0.30;;;;;;;;;;5096223;28;20047;-74
2022/09/29 04:53:30;;;;;;;0.75;0.30;;;;;;;;;;5096267;28;20044;-74
2022/09/29 04:55:57;;;;;;;1.10;0.73;;;;;;;;;;5095623;28;20097;-74
2022/09/29 04:58:23;;;;;;;1.35;0.73;;;;;;;;;;5095823;28;20044;-74
2022/09/29 05:00:49;;;;;;;1.10;0.25;;;;;;;;;;5095952;28;20055;-74
2022/09/29 05:03:15;;;;;;;1.98;0.52;;;;;;;;;;5096357;28;20040;-74
2022/09/29 05:05:41;;;;;;;0.65;0.30;;;;;;;;;;5095909;28;20050;-74
2022/09/29 05:08:07;;;;;;;1.95;0.85;;;;;;;;;;5095788;28;20052;-74
2022/09/29 05:10:33;;;;;;;0.20;0.20;;;;;;;;;;5095791;28;20115;-74
2022/09/29 05:12:59;;;;;;;1.15;0.47;;;;;;;;;;5096106;28;20093;-74
2022/09/29 05:15:26;;;;;;;0.73;0.28;;;;;;;;;;5095721;28;20044;-74
2022/09/29 05:17:52;;;;;;;2.10;1.65;;;;;;;;;;5095705;28;20100;-74
2022/09/29 05:20:18;;;;;;;0.70;0.55;;;;;;;;;;5096293;28;20111;-74
2022/09/29 05:22:44;;;;;;;2.30;2.10;;;;;;;;;;5096183;28;20071;-74
2022/09/29 05:25:10;;;;;;;0.88;0.70;;;;;;;;;;5095580;28;20054;-74
2022/09/29 05:27:37;;;;;;;6.82;2.17;;;;;;;;;;5095561;28;20043;-74
2022/09/29 05:30:03;;;;;;;0.70;0.22;;;;;;;;;;5114400;28;20517;-73
2022/09/29 05:32:29;;;;;;;0.50;0.20;;;;;;;;;;5115474;28;20074;-73
2022/09/29 05:34:56;;;;;;;2.05;0.20;;;;;;;;;;5115031;28;20028;-80
2022/09/29 05:37:23;;;;;;;0.90;0.30;;;;;;;;;;5114208;28;20046;-73
2022/09/29 05:39:49;;;;;;;7.35;0.40;;;;;;;;;;5112937;28;20073;-73
2022/09/29 05:42:15;;;;;;;0.55;0.30;;;;;;;;;;5113811;28;20043;-74
2022/09/29 05:44:41;;;;;;;0.52;0.52;;;;;;;;;;5113316;28;20044;-73
2022/09/29 05:47:07;;;;;;;0.65;0.40;;;;;;;;;;5114476;28;20090;-73
2022/09/29 05:49:35;;;;;;;0.80;0.30;;;;;;;;;;5114247;28;20043;-73
2022/09/29 05:52:01;;;;;;;0.20;0.20;;;;;;;;;;5115422;28;20035;-73
2022/09/29 05:54:27;;;;;;;0.28;0.20;;;;;;;;;;5097171;28;20043;-73
2022/09/29 05:56:54;;;;;;;0.88;0.30;;;;;;;;;;5112254;28;20042;-73
2022/09/29 05:59:21;;;;;;;0.88;0.20;;;;;;;;;;5115491;28;20047;-72
2022/09/29 06:01:47;;;;;;;0.15;0.10;;;;;;;;;;5115939;28;20039;-72
2022/09/29 06:04:13;;;;;;;1.30;0.20;;;;;;;;;;5114312;28;20066;-72
2022/09/29 06:06:39;;;;;;;1.25;0.40;;;;;;;;;;5113853;28;20527;-72
2022/09/29 06:09:06;;;;;;;0.20;0.17;;;;;;;;;;5114554;28;20047;-71
2022/09/29 06:11:32;;;;;;;0.65;0.50;;;;;;;;;;5115772;28;20039;-72
2022/09/29 06:13:58;;;;;;;0.95;0.65;;;;;;;;;;5114311;28;20115;-77
2022/09/29 06:16:26;;;;;;;2.00;0.17;;;;;;;;;;5115391;28;20104;-75
2022/09/29 06:18:52;;;;;;;0.22;0.22;;;;;;;;;;5115362;28;20114;-75
2022/09/29 06:21:20;;;;;;;0.10;0.10;;;;;;;;;;5115301;28;20130;-75
2022/09/29 06:23:46;;;;;;;0.22;0.22;;;;;;;;;;5115013;28;20048;-75
2022/09/29 06:26:13;;;;;;;0.73;0.15;;;;;;;;;;5114917;28;20114;-75
2022/09/29 06:28:40;;;;;;;1.08;0.77;;;;;;;;;;5114859;28;20035;-75
2022/09/29 06:31:08;;;;;;;0.35;0.25;;;;;;;;;;5114973;28;20070;-75
2022/09/29 06:33:35;;;;;;;0.15;0.15;;;;;;;;;;5115162;28;20043;-75
2022/09/29 06:38:48;;;;;;;0.20;0.20;;;;;;;;;;5114674;28;20043;-75
2022/09/29 06:41:14;;;;;;;0.10;0.10;;;;;;;;;;5114620;28;20514;-75
2022/09/29 06:43:40;;;;;;;3.80;0.47;;;;;;;;;;5114678;28;20044;-75
2022/09/29 06:46:06;;;;;;;0.65;0.22;;;;;;;;;;5115098;28;20046;-75
2022/09/29 06:48:32;;;;;;;0.10;0.10;;;;;;;;;;5114703;28;20052;-75
2022/09/29 06:50:59;;;;;;;0.25;0.10;;;;;;;;;;5114836;28;20497;-75
2022/09/29 06:53:25;;;;;;;0.40;0.20;;;;;;;;;;5115165;28;20044;-75
2022/09/29 06:55:59;;;;;;;0.60;0.60;;;;;;;;;;5114959;28;20093;-75
2022/09/29 06:58:25;;;;;;;1.33;0.90;;;;;;;;;;5114869;28;20040;-75
2022/09/29 07:00:52;;;;;;;1.88;1.10;;;;;;;;;;5114978;28;20035;-75
2022/09/29 07:03:18;;;;;;;1.98;0.68;;;;;;;;;;5115123;28;20071;-75
2022/09/29 07:05:44;;;;;;;3.17;1.42;;;;;;;;;;5114635;28;20031;-75
2022/09/29 07:08:10;;;;;;;1.40;1.30;;;;;;;;;;5114769;28;20142;-75
2022/09/29 07:10:37;;;;;;;2.58;2.38;;;;;;;;;;5118295;28;20118;-75
2022/09/29 07:13:03;;;;;;;2.95;2.75;;;;;;;;;;5117878;28;20401;-75
2022/09/29 07:15:32;;;;;;;2.45;2.25;;;;;;;;;;5118507;28;20478;-75
2022/09/29 07:18:00;;;;;;;2.35;2.25;;;;;;;;;;5118469;28;20051;-75
2022/09/29 07:20:27;;;;;;;0.60;0.60;;;;;;;;;;5118505;27;20036;-75
2022/09/29 07:22:54;;;;;;;2.50;1.70;;;;;;;;;;5118424;28;20052;-75
2022/09/29 07:25:20;;;;;;;1.08;0.98;;;;;;;;;;5118110;28;20039;-75
2022/09/29 07:27:47;;;;;;;0.80;0.80;;;;;;;;;;5117532;28;20161;-75
2022/09/29 07:30:14;;;;;;;0.88;0.88;;;;;;;;;;5118240;28;20566;-75
2022/09/29 07:32:40;;;;;;;1.08;0.98;;;;;;;;;;5118765;28;20577;-75
2022/09/29 07:35:06;;;;;;;2.65;0.90;;;;;;;;;;5118295;28;20049;-75
2022/09/29 07:37:32;;;;;;;2.80;2.60;;;;;;;;;;5118096;28;20043;-75
2022/09/29 07:39:59;;;;;;;4.57;0.70;;;;;;;;;;5118109;28;20091;-75
2022/09/29 07:42:27;;;;;;;1.77;1.67;;;;;;;;;;5118472;28;20040;-75
2022/09/29 07:44:53;;;;;;;0.93;0.60;;;;;;;;;;5117913;28;20071;-75
2022/09/29 07:47:19;;;;;;;1.98;1.58;;;;;;;;;;5118148;28;20497;-75
2022/09/29 07:49:45;;;;;;;1.52;1.30;;;;;;;;;;5116522;28;20031;-75
2022/09/29 07:52:15;;;;;;;0.80;0.80;;;;;;;;;;5117641;28;20071;-75
2022/09/29 07:54:41;;;;;;;0.85;0.55;;;;;;;;;;5117775;28;20038;-75
2022/09/29 07:57:07;;;;;;;0.70;0.60;;;;;;;;;;5117733;28;20039;-75
2022/09/29 07:59:33;;;;;;;0.60;0.45;;;;;;;;;;5117519;28;20050;-75
2022/09/29 08:02:01;;;;;;;1.70;1.00;;;;;;;;;;5117682;28;20037;-75
2022/09/29 08:04:27;;;;;;;1.60;1.05;;;;;;;;;;5117685;28;20043;-75
2022/09/29 08:06:53;;;;;;;2.95;1.38;;;;;;;;;;5117169;28;20047;-75
2022/09/29 08:09:19;;;;;;;2.10;0.50;;;;;;;;;;5117205;28;20040;-74
2022/09/29 08:11:45;;;;;;;1.50;1.40;;;;;;;;;;5117317;28;20047;-75
2022/09/29 08:14:12;;;;;;;1.63;0.50;;;;;;;;;;5117383;28;20047;-75
2022/09/29 08:16:38;;;;;;;1.20;0.85;;;;;;;;;;5117366;28;20512;-75
2022/09/29 08:19:04;;;;;;;2.35;0.80;;;;;;;;;;5116989;28;20040;-75
2022/09/29 08:21:35;;;;;;;1.65;0.98;;;;;;;;;;5116895;28;20042;-75
2022/09/29 08:24:03;;;;;;;1.90;1.55;;;;;;;;;;5117391;27;20079;-75
2022/09/29 08:26:31;;;;;;;2.15;1.05;;;;;;;;;;5116749;28;20078;-75
2022/09/29 08:28:57;;;;;;;1.98;1.20;;;;;;;;;;5116824;28;20105;-75
2022/09/29 08:31:23;;;;;;;2.75;0.55;;;;;;;;;;5116958;28;20498;-75
2022/09/29 08:33:50;;;;;;;1.17;0.50;;;;;;;;;;5117325;28;20051;-75
2022/09/29 08:36:17;;;;;;;0.60;0.50;;;;;;;;;;5117211;28;20141;-75
2022/09/29 08:38:47;;;;;;;0.80;0.50;;;;;;;;;;5117165;28;20074;-75
2022/09/29 08:41:22;;;;;;;1.73;0.40;;;;;;;;;;5116894;28;20043;-75
2022/09/29 08:43:49;;;;;;;15.02;13.50;;;;;;;;;;5116965;28;20513;-75
2022/09/29 08:46:26;;;;;;;2.35;1.98;;;;;;;;;;5116708;28;20032;-75
2022/09/29 08:48:53;;;;;;;1.75;1.65;;;;;;;;;;5116146;28;20069;-75
2022/09/29 08:51:33;;;;;;;2.35;2.13;;;;;;;;;;5116401;28;20027;-75
2022/09/29 08:54:05;;;;;;;1.27;0.70;;;;;;;;;;5116691;28;20074;-75
2022/09/29 08:56:32;;;;;;;1.27;1.00;;;;;;;;;;5117195;28;20467;-75
2022/09/29 08:58:59;;;;;;;0.73;0.40;;;;;;;;;;5116198;28;20031;-75
2022/09/29 09:01:37;;;;;;;2.10;1.90;;;;;;;;;;5116643;28;20036;-75
2022/09/29 09:04:24;;;;;;;6.00;3.38;;;;;;;;;;5116581;28;20079;-75
2022/09/29 09:06:55;;;;;;;0.65;0.60;;;;;;;;;;5102512;28;20063;-75
2022/09/29 09:09:40;;;;;;;0.45;0.40;;;;;;;;;;5116454;28;20039;-75
2022/09/29 09:12:15;;;;;;;0.47;0.32;;;;;;;;;;5116659;28;20044;-75
2022/09/29 09:14:57;;;;;;;2.40;0.73;;;;;;;;;;5116074;28;20066;-75
2022/09/29 09:17:26;;;;;;;1.23;0.95;;;;;;;;;;5116069;28;20097;-75
2022/09/29 09:20:09;;;;;;;1.52;0.98;;;;;;;;;;5116124;28;20065;-75
2022/09/29 09:22:50;;;;;;;4.43;0.68;;;;;;;;;;5116381;28;20047;-75
2022/09/29 09:25:23;;;;;;;0.70;0.35;;;;;;;;;;5116293;28;20067;-75
2022/09/29 09:27:55;;;;;;;4.18;1.70;;;;;;;;;;5115411;28;20043;-75
2022/09/29 09:30:21;;;;;;;1.60;1.25;;;;;;;;;;5115694;28;20510;-75
2022/09/29 09:33:10;;;;;;;2.20;2.00;;;;;;;;;;5115697;28;20067;-75
2022/09/29 09:35:45;;;;;;;1.23;0.60;;;;;;;;;;5116431;28;20501;-75
2022/09/29 09:38:20;;;;;;;1.00;0.93;;;;;;;;;;5115719;28;20051;-75
2022/09/29 09:40:48;;;;;;;0.80;0.80;;;;;;;;;;5116032;28;20098;-75
2022/09/29 09:43:26;;;;;;;1.20;0.50;;;;;;;;;;5115932;28;20047;-75
2022/09/29 09:45:55;;;;;;;0.90;0.80;;;;;;;;;;5115629;28;20035;-75
2022/09/29 09:48:29;;;;;;;1.73;0.82;;;;;;;;;;5115407;28;20143;-75
2022/09/29 09:50:57;;;;;;;2.72;0.75;;;;;;;;;;5115647;28;20040;-75
2022/09/29 09:53:43;;;;;;;1.33;0.40;;;;;;;;;;5115932;28;20131;-75
2022/09/29 09:56:16;;;;;;;1.05;0.60;;;;;;;;;;5115830;28;20070;-75
2022/09/29 09:58:42;;;;;;;1.17;0.45;;;;;;;;;;5115430;28;20118;-75
2022/09/29 10:01:11;;;;;;;1.35;0.60;;;;;;;;;;5115338;28;20039;-75
2022/09/29 10:03:37;;;;;;;0.50;0.40;;;;;;;;;;5115596;28;20049;-75
2022/09/29 10:06:05;;;;;;;3.03;0.55;;;;;;;;;;5115412;28;20069;-75
2022/09/29 10:08:38;;;;;;;0.95;0.50;;;;;;;;;;5115488;28;20082;-75
2022/09/29 10:11:10;;;;;;;0.98;0.50;;;;;;;;;;5114652;28;20510;-75
2022/09/29 10:13:36;;;;;;;0.98;0.50;;;;;;;;;;5115300;28;20043;-75
2022/09/29 10:16:05;;;;;;;1.38;0.40;;;;;;;;;;5115165;28;20043;-75
2022/09/29 10:18:42;;;;;;;0.98;0.40;;;;;;;;;;5114962;28;20047;-75
2022/09/29 10:21:24;;;;;;;2.00;1.30;;;;;;;;;;5114839;28;20036;-75
2022/09/29 10:23:51;;;;;;;1.17;0.52;;;;;;;;;;5115358;28;20487;-75
2022/09/29 10:26:24;;;;;;;0.55;0.40;;;;;;;;;;5114442;28;20051;-75
2022/09/29 10:29:11;;;;;;;1.25;0.50;;;;;;;;;;5115135;28;20039;-75
2022/09/29 10:31:37;;;;;;;1.45;0.40;;;;;;;;;;5073583;28;20043;-75
2022/09/29 10:34:03;;;;;;;1.33;0.50;;;;;;;;;;5114931;28;20046;-74
2022/09/29 10:36:33;;;;;;;0.47;0.40;;;;;;;;;;5114689;28;20077;-75
2022/09/29 10:38:59;;;;;;;0.80;0.50;;;;;;;;;;5114590;28;20043;-75
2022/09/29 10:41:25;;;;;;;0.80;0.52;;;;;;;;;;5115180;28;20558;-74
2022/09/29 10:43:52;;;;;;;0.50;0.50;;;;;;;;;;5116560;28;20036;-75
2022/09/29 10:46:36;;;;;;;1.67;0.75;;;;;;;;;;5119292;28;20069;-74
2022/09/29 10:49:08;;;;;;;0.50;0.50;;;;;;;;;;5119071;28;20046;-75
2022/09/29 10:51:35;;;;;;;0.93;0.40;;;;;;;;;;5118778;28;20039;-76
2022/09/29 10:54:10;;;;;;;0.90;0.60;;;;;;;;;;5119243;28;20044;-77
2022/09/29 10:56:36;;;;;;;0.80;0.50;;;;;;;;;;5118969;28;20389;-76
2022/09/29 10:59:03;;;;;;;1.42;0.52;;;;;;;;;;5118664;28;20031;-75
2022/09/29 11:01:31;;;;;;;1.50;0.75;;;;;;;;;;5118852;28;20498;-76
2022/09/29 11:04:02;;;;;;;2.45;0.60;;;;;;;;;;5119046;28;20035;-77
2022/09/29 11:06:40;;;;;;;1.67;0.52;;;;;;;;;;5118311;28;20044;-76
2022/09/29 11:09:07;;;;;;;1.48;0.50;;;;;;;;;;5097602;28;20090;-75
2022/09/29 11:11:35;;;;;;;0.77;0.70;;;;;;;;;;5097303;28;20517;-75
2022/09/29 11:14:01;;;;;;;0.63;0.50;;;;;;;;;;5097129;28;20093;-75
2022/09/29 11:16:33;;;;;;;1.55;0.80;;;;;;;;;;5097588;28;20051;-76
2022/09/29 11:19:07;;;;;;;4.28;1.70;;;;;;;;;;5097093;28;20544;-74
2022/09/29 11:21:42;;;;;;;1.58;0.85;;;;;;;;;;5094038;28;20081;-76
2022/09/29 11:24:11;;;;;;;0.98;0.55;;;;;;;;;;5096341;28;20074;-75
2022/09/29 11:26:38;;;;;;;2.30;1.05;;;;;;;;;;5097147;28;20487;-75
2022/09/29 11:29:22;;;;;;;1.63;0.73;;;;;;;;;;5096387;28;20044;-75
2022/09/29 11:32:07;;;;;;;0.50;0.50;;;;;;;;;;5096295;28;20123;-75
2022/09/29 11:34:36;;;;;;;0.77;0.45;;;;;;;;;;5098026;28;20050;-74
2022/09/29 11:37:05;;;;;;;1.65;0.85;;;;;;;;;;5096499;28;20043;-74
2022/09/29 11:39:44;;;;;;;20.65;14.00;;;;;;;;;;5096700;28;20052;-74
2022/09/29 11:42:29;;;;;;;26.83;14.82;;;;;;;;;;5097400;28;20056;-74
2022/09/29 11:45:02;;;;;;;7.97;5.35;;;;;;;;;;5096324;28;20032;-74
2022/09/29 11:47:39;;;;;;;12.02;8.02;;;;;;;;;;5097131;28;20124;-75
2022/09/29 11:50:24;;;;;;;1.95;1.10;;;;;;;;;;5097319;28;20098;-75
2022/09/29 11:53:08;;;;;;;1.90;0.90;;;;;;;;;;5096157;28;20039;-75
2022/09/29 11:55:44;;;;;;;3.85;2.58;;;;;;;;;;5096129;28;20047;-74
2022/09/29 11:58:29;;;;;;;0.95;0.45;;;;;;;;;;5096884;28;20043;-73
2022/09/29 12:01:14;;;;;;;2.65;1.00;;;;;;;;;;5096906;28;20089;-72
2022/09/29 12:04:00;;;;;;;7.72;0.60;;;;;;;;;;5096665;28;20399;-75
2022/09/29 12:06:36;;;;;;;0.55;0.38;;;;;;;;;;5096063;28;20066;-74
2022/09/29 12:09:32;;;;;;;0.82;0.63;;;;;;;;;;5096364;28;20040;-76
2022/09/29 12:12:18;;;;;;;0.93;0.40;;;;;;;;;;5078691;28;20040;-75
2022/09/29 12:15:03;;;;;;;3.05;0.60;;;;;;;;;;5096541;28;20032;-75
2022/09/29 12:17:32;;;;;;;2.15;1.63;;;;;;;;;;5096611;28;20043;-75
2022/09/29 12:20:05;;;;;;;3.25;1.67;;;;;;;;;;5096067;28;20044;-75
2022/09/29 12:22:32;;;;;;;1.40;0.52;;;;;;;;;;5095225;28;20110;-75
2022/09/29 12:24:58;;;;;;;0.57;0.40;;;;;;;;;;5096786;28;20130;-73
2022/09/29 12:27:27;;;;;;;2.28;1.00;;;;;;;;;;5095595;28;20510;-74
2022/09/29 12:30:17;;;;;;;0.90;0.80;;;;;;;;;;5096412;28;20086;-75
2022/09/29 12:32:57;;;;;;;1.58;0.77;;;;;;;;;;5096594;28;20055;-74
2022/09/29 12:35:38;;;;;;;0.67;0.50;;;;;;;;;;5095955;28;20036;-74
2022/09/29 12:38:20;;;;;;;1.67;0.63;;;;;;;;;;5095666;28;20040;-75
2022/09/29 12:40:50;;;;;;;0.73;0.45;;;;;;;;;;5096289;28;20051;-75
2022/09/29 12:43:23;;;;;;;1.40;0.50;;;;;;;;;;5095604;28;20032;-75
2022/09/29 12:45:55;;;;;;;0.85;0.50;;;;;;;;;;5096315;28;20052;-75
2022/09/29 12:48:21;;;;;;;1.45;0.90;;;;;;;;;;5095155;28;20050;-75
2022/09/29 12:51:02;;;;;;;0.30;0.30;;;;;;;;;;5095609;28;20066;-75
2022/09/29 12:53:35;;;;;;;2.60;0.52;;;;;;;;;;5095639;28;20040;-75
2022/09/29 12:56:04;;;;;;;2.60;1.38;;;;;;;;;;5095568;28;20050;-74
2022/09/29 12:58:45;;;;;;;7.80;5.22;;;;;;;;;;5093163;28;20121;-74
2022/09/29 13:01:20;;;;;;;4.10;2.30;;;;;;;;;;5094001;28;20094;-74
2022/09/29 13:04:04;;;;;;;1.33;0.93;;;;;;;;;;5095773;28;20047;-74
2022/09/29 13:06:33;;;;;;;2.08;0.85;;;;;;;;;;5093188;28;20072;-74
2022/09/29 13:09:20;;;;;;;2.38;0.93;;;;;;;;;;5095315;28;20409;-74
2022/09/29 13:12:25;;;;;;;1.75;0.90;;;;;;;;;;5095495;28;20585;-74
2022/09/29 13:15:09;;;;;;;2.30;0.77;;;;;;;;;;5012478;28;20081;-74
2022/09/29 13:17:53;;;;;;;0.95;0.70;;;;;;;;;;5013114;28;20049;-74
2022/09/29 13:20:28;;;;;;;2.70;2.10;;;;;;;;;;5072498;28;20040;-74
2022/09/29 13:23:10;;;;;;;1.67;0.68;;;;;;;;;;5094404;28;20046;-74
2022/09/29 13:25:36;;;;;;;3.35;0.73;;;;;;;;;;5094648;28;20462;-74
2022/09/29 13:28:04;;;;;;;1.55;0.77;;;;;;;;;;5093525;28;20406;-74
2022/09/29 13:30:34;;;;;;;3.33;1.60;;;;;;;;;;5095108;28;20565;-75
2022/09/29 13:33:06;;;;;;;1.33;0.57;;;;;;;;;;5095297;28;20032;-75
2022/09/29 13:35:38;;;;;;;2.13;0.60;;;;;;;;;;5094522;28;20482;-74
2022/09/29 13:38:06;;;;;;;1.95;0.50;;;;;;;;;;5094221;28;20047;-74
2022/09/29 13:40:32;;;;;;;3.05;0.47;;;;;;;;;;5095352;28;20040;-74
2022/09/29 13:43:01;;;;;;;2.38;0.73;;;;;;;;;;5094240;28;20044;-74
2022/09/29 13:45:33;;;;;;;2.63;0.40;;;;;;;;;;5094964;28;20035;-74
2022/09/29 13:48:00;;;;;;;0.60;0.60;;;;;;;;;;5094141;28;20054;-74
2022/09/29 13:50:46;;;;;;;0.70;0.60;;;;;;;;;;5094459;28;20036;-74
2022/09/29 13:53:21;;;;;;;3.72;0.60;;;;;;;;;;5094304;28;20111;-74
2022/09/29 13:55:47;;;;;;;2.17;0.75;;;;;;;;;;5094652;28;20089;-74
2022/09/29 13:58:22;;;;;;;1.42;0.80;;;;;;;;;;5094594;28;20145;-74
2022/09/29 14:00:49;;;;;;;0.82;0.82;;;;;;;;;;5094469;28;20044;-74
2022/09/29 14:03:26;;;;;;;1.08;0.65;;;;;;;;;;5086697;28;20504;-75
2022/09/29 14:05:53;;;;;;;1.15;0.50;;;;;;;;;;5091141;28;20444;-74
2022/09/29 14:08:26;;;;;;;1.17;0.63;;;;;;;;;;5093564;28;20517;-74
2022/09/29 14:11:01;;;;;;;1.13;0.60;;;;;;;;;;5110068;28;20043;-75
2022/09/29 14:13:31;;;;;;;0.85;0.50;;;;;;;;;;5107488;28;20040;-75
2022/09/29 14:16:20;;;;;;;2.08;0.65;;;;;;;;;;5093174;28;20089;-75
2022/09/29 14:18:51;;;;;;;3.33;1.33;;;;;;;;;;5094206;28;20044;-74
2022/09/29 14:21:36;;;;;;;2.75;0.50;;;;;;;;;;5094196;28;20044;-74
2022/09/29 14:24:02;;;;;;;0.60;0.40;;;;;;;;;;5102765;28;20107;-74
2022/09/29 14:26:42;;;;;;;0.98;0.47;;;;;;;;;;5094493;28;20051;-75
2022/09/29 14:29:22;;;;;;;1.20;0.88;;;;;;;;;;5091295;28;20086;-74
2022/09/29 14:31:50;;;;;;;0.50;0.35;;;;;;;;;;5092957;28;20513;-74
2022/09/29 14:34:17;;;;;;;1.58;0.60;;;;;;;;;;5095486;28;20581;-73
2022/09/29 14:36:45;;;;;;;2.08;0.77;;;;;;;;;;5113471;28;20092;-73
2022/09/29 14:39:13;;;;;;;0.57;0.40;;;;;;;;;;5113256;28;20067;-74
2022/09/29 14:41:40;;;;;;;1.85;0.43;;;;;;;;;;5113309;28;20035;-73
2022/09/29 14:51:56;;;;;;;1.98;0.68;;;;;;;;;;5113508;28;20039;-74
2022/09/29 14:53:13;;;;;;;0.60;0.50;;;;;;;;;;5112798;28;20035;-74
2022/09/29 14:55:58;;;;;;;3.03;0.73;;;;;;;;;;5114184;28;20036;-73
2022/09/29 14:58:28;;;;;;;0.85;0.60;;;;;;;;;;5112875;28;20180;-74
2022/09/29 15:01:00;;;;;;;1.77;0.90;;;;;;;;;;5113915;28;20039;-74
2022/09/29 15:03:28;;;;;;;1.95;0.60;;;;;;;;;;5101516;28;20066;-74
2022/09/29 15:06:15;;;;;;;0.40;0.40;;;;;;;;;;5110522;28;20042;-73
2022/09/29 15:08:41;;;;;;;5.35;4.13;;;;;;;;;;5093165;28;20090;-73
2022/09/29 15:11:31;;;;;;;2.33;1.30;;;;;;;;;;5102510;28;20044;-73